createdAt,value
2022-11-21T00:01:20.175Z,4.38
2022-11-21T00:03:49.767Z,4.10
2022-11-21T00:08:46.396Z,4.53
2022-11-21T00:11:14.692Z,4.50
2022-11-21T00:13:43.357Z,4.70
2022-11-21T00:16:13.556Z,3.87
2022-11-21T00:18:41.676Z,5.13
2022-11-21T00:21:13.503Z,4.93
2022-11-21T00:23:41.648Z,4.90
2022-11-21T00:26:11.029Z,4.55
2022-11-21T00:28:39.570Z,5.55
2022-11-21T00:31:08.045Z,4.35
2022-11-21T00:33:36.705Z,5.95
2022-11-21T00:36:08.374Z,6.43
2022-11-21T00:38:37.888Z,6.53
2022-11-21T00:43:34.227Z,5.82
2022-11-21T00:46:02.914Z,5.60
2022-11-21T00:48:32.201Z,5.28
2022-11-21T00:51:01.122Z,4.00
2022-11-21T00:53:29.788Z,6.55
2022-11-21T00:55:59.697Z,6.27
2022-11-21T00:58:28.424Z,5.75
2022-11-21T01:01:05.259Z,4.32
2022-11-21T01:03:34.868Z,5.80
2022-11-21T01:06:08.519Z,6.40
2022-11-21T01:08:38.484Z,5.97
2022-11-21T01:11:09.871Z,5.95
2022-11-21T01:13:38.666Z,6.10
2022-11-21T01:16:07.347Z,5.53
2022-11-21T01:18:35.487Z,6.05
2022-11-21T01:21:04.357Z,7.03
2022-11-21T01:23:32.388Z,6.50
2022-11-21T01:26:03.718Z,6.15
2022-11-21T01:28:33.552Z,6.38
2022-11-21T01:31:05.784Z,6.35
2022-11-21T01:33:34.839Z,6.80
2022-11-21T01:36:11.123Z,6.68
2022-11-21T01:38:39.695Z,7.60
2022-11-21T01:41:07.758Z,5.03
2022-11-21T01:43:37.476Z,7.55
2022-11-21T01:46:11.544Z,7.35
2022-11-21T01:48:44.286Z,7.28
2022-11-21T01:51:16.685Z,7.95
2022-11-21T01:53:49.001Z,8.02
2022-11-21T01:56:17.335Z,7.57
2022-11-21T01:58:48.664Z,7.60
2022-11-21T02:01:16.837Z,8.60
2022-11-21T02:03:46.301Z,7.88
2022-11-21T02:06:14.876Z,7.43
2022-11-21T02:08:44.921Z,7.75
2022-11-21T02:11:20.503Z,6.97
2022-11-21T02:13:50.353Z,7.30
2022-11-21T02:16:19.311Z,6.35
2022-11-21T02:18:47.706Z,5.78
2022-11-21T02:21:24.632Z,4.75
2022-11-21T02:24:00.473Z,3.28
2022-11-21T02:26:31.143Z,1.77
2022-11-21T02:28:59.595Z,2.58
2022-11-21T02:31:27.772Z,1.80
2022-11-21T02:33:55.835Z,1.48
2022-11-21T02:36:43.027Z,1.45
2022-11-21T02:39:15.657Z,1.20
2022-11-21T02:41:52.966Z,1.35
2022-11-21T02:44:27.635Z,1.08
2022-11-21T02:46:56.154Z,0.90
2022-11-21T02:49:32.680Z,0.85
2022-11-21T02:52:00.678Z,0.95
2022-11-21T02:54:29.101Z,0.70
2022-11-21T02:56:58.776Z,0.50
2022-11-21T02:59:26.839Z,0.70
2022-11-21T03:01:57.495Z,0.55
2022-11-21T03:04:25.836Z,0.80
2022-11-21T03:06:54.364Z,0.50
2022-11-21T03:09:22.424Z,0.55
2022-11-21T03:11:50.426Z,0.60
2022-11-21T03:14:19.876Z,0.50
2022-11-21T03:16:47.896Z,0.40
2022-11-21T03:19:16.005Z,0.47
2022-11-21T03:21:43.984Z,0.47
2022-11-21T03:24:12.229Z,0.40
2022-11-21T03:26:40.235Z,0.45
2022-11-21T03:29:08.813Z,0.43
2022-11-21T03:31:38.290Z,0.40
2022-11-21T03:34:06.448Z,0.45
2022-11-21T03:36:34.451Z,0.40
2022-11-21T03:39:02.494Z,0.30
2022-11-21T03:41:30.494Z,0.32
2022-11-21T03:43:59.034Z,0.30
2022-11-21T03:46:27.596Z,0.43
2022-11-21T03:48:57.057Z,0.30
2022-11-21T03:53:53.072Z,0.40
2022-11-21T03:56:21.077Z,0.30
2022-11-21T03:58:49.090Z,0.30
2022-11-21T04:01:17.630Z,0.47
2022-11-21T04:03:46.259Z,0.30
2022-11-21T04:06:17.470Z,0.40
2022-11-21T04:08:45.499Z,0.30
2022-11-21T04:11:13.505Z,0.50
2022-11-21T04:13:41.584Z,0.30
2022-11-21T04:16:09.795Z,0.40
2022-11-21T04:18:38.298Z,0.30
2022-11-21T04:21:08.048Z,0.25
2022-11-21T04:23:37.477Z,0.30
2022-11-21T04:26:05.588Z,0.30
2022-11-21T04:28:33.791Z,0.47
2022-11-21T04:31:10.445Z,0.52
2022-11-21T04:33:39.640Z,0.50
2022-11-21T04:36:08.962Z,0.60
2022-11-21T04:38:38.509Z,0.70
2022-11-21T04:43:34.309Z,0.50
2022-11-21T04:46:02.289Z,0.60
2022-11-21T04:48:30.338Z,0.70
2022-11-21T04:50:58.307Z,0.43
2022-11-21T04:53:26.279Z,0.60
2022-11-21T04:55:55.640Z,0.93
2022-11-21T04:58:23.647Z,0.57
2022-11-21T05:00:51.690Z,0.65
2022-11-21T05:03:19.749Z,0.50
2022-11-21T05:05:47.799Z,0.55
2022-11-21T05:08:15.900Z,0.55
2022-11-21T05:11:02.084Z,0.90
2022-11-21T05:13:31.418Z,0.90
2022-11-21T05:15:59.431Z,1.00
2022-11-21T05:18:27.477Z,0.90
2022-11-21T05:20:55.491Z,1.23
2022-11-21T05:23:23.554Z,1.50
2022-11-21T05:25:51.613Z,1.13
2022-11-21T05:28:19.632Z,1.33
2022-11-21T05:30:49.027Z,1.42
2022-11-21T05:33:17.058Z,1.13
2022-11-21T05:35:45.224Z,1.25
2022-11-21T05:38:13.220Z,1.05
2022-11-21T05:40:41.311Z,1.40
2022-11-21T05:43:28.411Z,1.00
2022-11-21T05:45:57.762Z,1.27
2022-11-21T05:48:25.770Z,1.95
2022-11-21T05:50:53.828Z,1.17
2022-11-21T05:53:22.011Z,1.10
2022-11-21T05:55:49.994Z,1.23
2022-11-21T05:58:18.720Z,1.73
2022-11-21T06:00:46.742Z,3.53
2022-11-21T06:03:27.147Z,2.63
2022-11-21T06:06:00.511Z,1.95
2022-11-21T06:08:28.946Z,1.98
2022-11-21T06:10:56.998Z,1.20
2022-11-21T06:13:25.007Z,2.00
2022-11-21T06:16:03.192Z,1.45
2022-11-21T06:18:34.581Z,1.75
2022-11-21T06:21:03.777Z,1.55
2022-11-21T06:23:32.090Z,1.73
2022-11-21T06:26:01.176Z,2.08
2022-11-21T06:28:33.582Z,1.55
2022-11-21T06:31:04.811Z,2.10
2022-11-21T06:33:34.774Z,2.15
2022-11-21T06:36:04.057Z,1.92
2022-11-21T06:38:32.181Z,1.50
2022-11-21T06:41:00.219Z,2.15
2022-11-21T06:43:28.627Z,2.17
2022-11-21T06:45:57.076Z,2.35
2022-11-21T06:48:25.221Z,3.00
2022-11-21T06:50:54.611Z,2.55
2022-11-21T06:53:22.667Z,2.70
2022-11-21T06:55:50.683Z,2.75
2022-11-21T06:58:18.736Z,2.97
2022-11-21T07:00:48.675Z,5.00
2022-11-21T07:03:16.641Z,1.92
2022-11-21T07:05:44.659Z,1.80
2022-11-21T07:08:14.024Z,1.80
2022-11-21T07:10:57.258Z,1.70
2022-11-21T07:13:30.634Z,1.35
2022-11-21T07:16:02.814Z,1.90
2022-11-21T07:18:30.819Z,1.92
2022-11-21T07:20:59.506Z,1.75
2022-11-21T07:23:29.362Z,1.77
2022-11-21T07:26:01.517Z,1.30
2022-11-21T07:28:29.799Z,1.30
2022-11-21T07:30:58.112Z,1.67
2022-11-21T07:33:26.591Z,1.45
2022-11-21T07:35:57.158Z,1.60
2022-11-21T07:38:25.618Z,1.80
2022-11-21T07:40:57.159Z,1.50
2022-11-21T07:43:25.426Z,1.60
2022-11-21T07:45:53.419Z,1.60
2022-11-21T07:48:21.421Z,1.33
2022-11-21T07:50:49.471Z,1.45
2022-11-21T07:53:17.473Z,1.50
2022-11-21T07:55:45.515Z,1.52
2022-11-21T07:58:18.866Z,1.67
2022-11-21T08:00:46.864Z,1.63
2022-11-21T08:03:15.119Z,2.72
2022-11-21T08:05:44.962Z,2.00
2022-11-21T08:08:14.148Z,32.60
2022-11-21T08:10:43.631Z,78.00
2022-11-21T08:15:41.508Z,33.83
2022-11-21T08:18:10.885Z,256.05
2022-11-21T08:20:39.159Z,171.52
2022-11-21T08:23:07.856Z,62.92
2022-11-21T08:25:38.681Z,48.57
2022-11-21T08:28:08.218Z,5.55
2022-11-21T08:33:06.669Z,6.68
2022-11-21T08:35:37.983Z,6.93
2022-11-21T08:38:06.792Z,4.60
2022-11-21T08:40:35.894Z,2.30
2022-11-21T08:43:05.827Z,2.42
2022-11-21T08:45:34.594Z,3.28
2022-11-21T08:48:03.196Z,2.00
2022-11-21T08:50:32.977Z,1.60
2022-11-21T08:53:02.296Z,2.63
2022-11-21T08:55:30.706Z,1.90
2022-11-21T08:57:58.966Z,5.57
2022-11-21T09:00:26.962Z,4.25
2022-11-21T09:02:54.984Z,12.43
2022-11-21T09:05:22.974Z,2.15
2022-11-21T09:07:58.391Z,1.88
2022-11-21T09:10:26.433Z,5.47
2022-11-21T09:12:54.481Z,3.20
2022-11-21T09:15:39.810Z,6.47
2022-11-21T09:18:08.173Z,11.32
2022-11-21T09:20:40.858Z,1.40
2022-11-21T09:23:12.079Z,0.90
2022-11-21T09:25:40.217Z,4.50
2022-11-21T09:28:09.538Z,2.95
2022-11-21T09:30:38.190Z,1.10
2022-11-21T09:33:07.979Z,1.30
2022-11-21T09:35:36.246Z,1.02
2022-11-21T09:38:04.763Z,3.10
2022-11-21T09:40:35.713Z,1.20
2022-11-21T09:43:25.358Z,1.73
2022-11-21T09:45:57.651Z,1.65
2022-11-21T09:48:31.425Z,0.70
2022-11-21T09:51:05.437Z,0.70
2022-11-21T09:53:37.037Z,3.03
2022-11-21T09:56:11.735Z,0.45
2022-11-21T09:58:44.169Z,0.88
2022-11-21T10:01:14.065Z,1.77
2022-11-21T10:03:44.675Z,0.90
2022-11-21T10:06:20.368Z,0.60
2022-11-21T10:08:59.259Z,0.50
2022-11-21T10:12:00.644Z,0.40
2022-11-21T10:14:40.112Z,0.80
2022-11-21T10:20:10.879Z,4.68
2022-11-21T10:22:56.753Z,0.60
2022-11-21T10:25:27.833Z,0.85
2022-11-21T10:28:02.503Z,0.95
2022-11-21T10:30:30.758Z,1.65
2022-11-21T10:33:03.208Z,2.53
2022-11-21T10:35:39.618Z,1.33
2022-11-21T10:38:20.532Z,1.40
2022-11-21T10:40:52.181Z,2.58
2022-11-21T10:43:49.819Z,1.10
2022-11-21T10:46:17.838Z,0.90
2022-11-21T10:48:58.328Z,1.10
2022-11-21T10:51:43.227Z,0.88
2022-11-21T10:54:31.209Z,1.52
2022-11-21T10:57:03.122Z,1.42
2022-11-21T10:59:32.513Z,1.55
2022-11-21T11:02:02.558Z,1.30
2022-11-21T11:04:37.484Z,0.80
2022-11-21T11:07:25.114Z,0.90
2022-11-21T11:09:53.727Z,1.20
2022-11-21T11:12:46.913Z,1.23
2022-11-21T11:15:21.164Z,1.35
2022-11-21T11:17:54.086Z,1.10
2022-11-21T11:20:35.629Z,0.70
2022-11-21T11:23:18.374Z,1.10
2022-11-21T11:25:48.600Z,1.00
2022-11-21T11:28:16.598Z,0.68
2022-11-21T11:30:46.716Z,1.25
2022-11-21T11:33:42.737Z,0.90
2022-11-21T11:36:16.084Z,1.20
2022-11-21T11:38:49.766Z,1.15
2022-11-21T11:41:59.083Z,1.70
2022-11-21T11:44:52.743Z,1.80
2022-11-21T11:47:34.271Z,0.85
2022-11-21T11:50:12.941Z,2.95
2022-11-21T11:52:49.956Z,1.77
2022-11-21T11:55:22.921Z,2.10
2022-11-21T11:57:53.900Z,1.40
2022-11-21T12:00:33.417Z,1.33
2022-11-21T12:05:33.460Z,0.77
2022-11-21T12:11:25.034Z,0.80
2022-11-21T12:13:56.462Z,1.10
2022-11-21T12:16:27.635Z,0.93
2022-11-21T12:19:03.200Z,0.75
2022-11-21T12:21:31.187Z,0.98
2022-11-21T12:24:03.159Z,0.93
2022-11-21T12:26:41.364Z,0.90
2022-11-21T12:29:31.134Z,1.00
2022-11-21T12:32:17.421Z,1.00
2022-11-21T12:35:05.201Z,0.75
2022-11-21T12:37:47.261Z,1.08
2022-11-21T12:40:30.158Z,1.10
2022-11-21T12:43:09.848Z,0.90
2022-11-21T12:45:40.916Z,1.00
2022-11-21T12:48:39.450Z,0.90
2022-11-21T12:51:52.696Z,0.90
2022-11-21T12:54:40.862Z,0.80
2022-11-21T12:57:12.443Z,1.10
2022-11-21T12:59:56.008Z,0.90
2022-11-21T13:02:32.814Z,0.80
2022-11-21T13:05:03.252Z,0.90
2022-11-21T13:07:33.602Z,1.27
2022-11-21T13:10:03.769Z,1.40
2022-11-21T13:12:40.592Z,1.25
2022-11-21T13:15:21.699Z,1.05
2022-11-21T13:17:55.148Z,1.20
2022-11-21T13:20:28.695Z,1.13
2022-11-21T13:22:59.872Z,1.10
2022-11-21T13:25:50.008Z,1.02
2022-11-21T13:28:46.367Z,0.90
2022-11-21T13:31:30.377Z,1.63
2022-11-21T13:33:59.350Z,1.13
2022-11-21T13:36:41.902Z,1.25
2022-11-21T13:39:30.773Z,1.63
2022-11-21T13:42:37.263Z,1.13
2022-11-21T13:45:40.277Z,1.30
2022-11-21T13:48:38.765Z,1.52
2022-11-21T13:51:24.201Z,1.80
2022-11-21T13:54:21.845Z,1.30
2022-11-21T13:57:08.424Z,1.70
2022-11-21T13:59:52.535Z,2.15
2022-11-21T14:02:50.106Z,2.08
2022-11-21T14:05:34.730Z,2.60
2022-11-21T14:08:17.857Z,2.53
2022-11-21T14:10:47.244Z,2.05
2022-11-21T14:13:24.498Z,2.63
2022-11-21T14:16:06.951Z,1.90
2022-11-21T14:18:36.798Z,1.70
2022-11-21T14:21:08.219Z,1.70
2022-11-21T14:23:37.372Z,1.52
2022-11-21T14:26:12.130Z,2.30
2022-11-21T14:28:41.597Z,1.83
2022-11-21T14:31:12.200Z,2.15
2022-11-21T14:33:41.187Z,1.80
2022-11-21T14:36:14.376Z,1.48
2022-11-21T14:38:53.957Z,1.50
2022-11-21T14:41:32.642Z,1.60
2022-11-21T14:44:16.904Z,1.52
2022-11-21T14:46:47.339Z,1.42
2022-11-21T14:49:29.259Z,2.03
2022-11-21T14:52:13.589Z,2.40
2022-11-21T14:55:13.543Z,2.45
2022-11-21T14:57:39.795Z,3.25
2022-11-21T15:00:36.285Z,3.78
2022-11-21T15:03:03.574Z,2.80
2022-11-21T15:06:00.940Z,7.20
2022-11-21T15:11:12.957Z,4.90
2022-11-21T15:16:31.738Z,3.40
2022-11-21T15:18:59.782Z,2.60
2022-11-21T15:21:27.816Z,2.75
2022-11-21T15:23:56.877Z,3.97
2022-11-21T15:26:30.655Z,4.63
2022-11-21T15:29:00.563Z,5.50
2022-11-21T15:31:29.352Z,8.20
2022-11-21T15:37:04.751Z,6.47
2022-11-21T15:39:34.364Z,6.10
2022-11-21T15:42:46.966Z,6.07
2022-11-21T15:45:26.327Z,8.32
2022-11-21T15:47:55.511Z,7.30
2022-11-21T15:50:26.229Z,8.48
2022-11-21T15:52:54.605Z,15.27
2022-11-21T15:55:25.755Z,6.70
2022-11-21T15:57:53.747Z,15.02
2022-11-21T16:00:21.923Z,11.05
2022-11-21T16:02:49.973Z,11.85
2022-11-21T16:05:17.972Z,11.73
2022-11-21T16:07:48.466Z,13.57
2022-11-21T16:10:25.917Z,13.48
2022-11-21T16:12:55.464Z,11.32
2022-11-21T16:15:24.049Z,9.73
2022-11-21T16:17:52.983Z,9.13
2022-11-21T16:20:20.987Z,10.57
2022-11-21T16:22:50.581Z,7.40
2022-11-21T16:27:47.225Z,6.53
2022-11-21T16:30:16.002Z,7.47
2022-11-21T16:32:44.022Z,4.97
2022-11-21T16:35:12.002Z,7.07
2022-11-21T16:37:40.033Z,6.63
2022-11-21T16:40:11.386Z,4.97
2022-11-21T16:42:39.509Z,5.03
2022-11-21T16:45:08.100Z,4.78
2022-11-21T16:47:37.786Z,3.20
2022-11-21T16:50:06.685Z,7.43
2022-11-21T16:52:36.607Z,9.13
2022-11-21T16:55:05.447Z,8.98
2022-11-21T16:57:37.873Z,3.97
2022-11-21T17:00:11.134Z,6.90
2022-11-21T17:02:40.271Z,7.32
2022-11-21T17:07:37.224Z,11.13
2022-11-21T17:10:05.840Z,13.02
2022-11-21T17:12:38.989Z,7.75
2022-11-21T17:15:09.279Z,6.20
2022-11-21T17:17:37.449Z,5.57
2022-11-21T17:20:06.287Z,4.07
2022-11-21T17:22:34.492Z,3.90
2022-11-21T17:25:02.498Z,6.05
2022-11-21T17:27:30.472Z,5.72
2022-11-21T17:29:59.857Z,5.97
2022-11-21T17:32:27.863Z,6.78
2022-11-21T17:34:55.847Z,10.00
2022-11-21T17:37:23.845Z,10.52
2022-11-21T17:39:51.836Z,7.97
2022-11-21T17:42:19.856Z,6.25
2022-11-21T17:44:47.835Z,6.93
2022-11-21T17:47:17.178Z,6.28
2022-11-21T17:49:45.177Z,5.60
2022-11-21T17:52:13.197Z,5.03
2022-11-21T17:54:41.171Z,4.30
2022-11-21T17:57:09.248Z,4.70
2022-11-21T17:59:38.493Z,4.15
2022-11-21T18:02:06.580Z,3.72
2022-11-21T18:04:38.856Z,3.53
2022-11-21T18:07:07.234Z,4.05
2022-11-21T18:09:35.335Z,4.43
2022-11-21T18:12:03.678Z,4.53
2022-11-21T18:14:31.964Z,3.88
2022-11-21T18:17:00.013Z,2.92
2022-11-21T18:19:27.979Z,3.05
2022-11-21T18:21:57.333Z,5.00
2022-11-21T18:24:25.344Z,10.85
2022-11-21T18:26:53.352Z,12.77
2022-11-21T18:29:38.251Z,6.75
2022-11-21T18:32:07.281Z,4.78
2022-11-21T18:34:35.292Z,6.15
2022-11-21T18:37:04.799Z,7.80
2022-11-21T18:42:01.017Z,13.38
2022-11-21T18:44:28.983Z,10.27
2022-11-21T18:46:57.011Z,8.63
2022-11-21T18:49:24.971Z,7.50
2022-11-21T18:51:52.934Z,7.57
2022-11-21T18:54:22.346Z,7.43
2022-11-21T18:56:50.415Z,8.55
2022-11-21T18:59:18.479Z,8.98
2022-11-21T19:01:47.042Z,9.13
2022-11-21T19:04:15.298Z,7.77
2022-11-21T19:06:43.385Z,11.73
2022-11-21T19:09:11.689Z,11.48
2022-11-21T19:11:41.924Z,11.48
2022-11-21T19:14:10.097Z,11.15
2022-11-21T19:16:38.116Z,12.63
2022-11-21T19:21:55.558Z,12.40
2022-11-21T19:24:23.584Z,13.80
2022-11-21T19:26:53.207Z,14.00
2022-11-21T19:31:49.057Z,14.15
2022-11-21T19:34:17.698Z,12.63
2022-11-21T19:36:46.519Z,10.20
2022-11-21T19:39:14.793Z,8.98
2022-11-21T19:41:42.914Z,9.63
2022-11-21T19:44:12.438Z,7.90
2022-11-21T19:49:11.062Z,10.75
2022-11-21T19:51:40.867Z,10.57
2022-11-21T19:54:10.321Z,16.33
2022-11-21T19:56:38.318Z,8.80
2022-11-21T19:59:06.528Z,6.25
2022-11-21T20:01:36.527Z,7.00
2022-11-21T20:04:06.481Z,6.45
2022-11-21T20:06:36.795Z,7.13
2022-11-21T20:09:07.769Z,7.35
2022-11-21T20:11:36.220Z,6.78
2022-11-21T20:14:04.356Z,7.13
2022-11-21T20:16:34.021Z,7.70
2022-11-21T20:19:06.481Z,9.57
2022-11-21T20:21:34.946Z,8.10
2022-11-21T20:24:03.604Z,31.50
2022-11-21T20:26:31.910Z,10.40
2022-11-21T20:28:59.945Z,23.60
2022-11-21T20:31:29.662Z,20.10
2022-11-21T20:34:00.676Z,11.77
2022-11-21T20:36:32.165Z,8.13
2022-11-21T20:39:02.436Z,7.45
2022-11-21T20:41:31.720Z,7.45
2022-11-21T20:46:50.592Z,6.53
2022-11-21T20:49:18.660Z,5.95
2022-11-21T20:53:20.634Z,8.18
2022-11-21T20:54:36.447Z,7.43
2022-11-21T20:57:04.531Z,7.55
2022-11-21T20:59:32.817Z,7.85
2022-11-21T21:02:01.162Z,9.73
2022-11-21T21:04:29.227Z,10.27
2022-11-21T21:06:58.544Z,16.00
2022-11-21T21:09:26.776Z,17.50
2022-11-21T21:11:54.951Z,11.80
2022-11-21T21:14:23.344Z,11.07
2022-11-21T21:16:51.390Z,10.30
2022-11-21T21:19:22.343Z,10.20
2022-11-21T21:21:50.486Z,10.68
2022-11-21T21:24:19.844Z,11.60
2022-11-21T21:26:49.670Z,12.48
2022-11-21T21:29:19.597Z,10.88
2022-11-21T21:31:51.710Z,10.68
2022-11-21T21:34:21.342Z,10.48
2022-11-21T21:36:49.641Z,6.85
2022-11-21T21:39:19.006Z,9.13
2022-11-21T21:41:47.883Z,11.15
2022-11-21T21:44:16.714Z,10.02
2022-11-21T21:46:45.338Z,10.65
2022-11-21T21:49:13.611Z,7.90
2022-11-21T21:51:41.911Z,11.45
2022-11-21T21:54:16.988Z,11.05
2022-11-21T21:56:46.922Z,11.75
2022-11-21T21:59:15.500Z,12.15
2022-11-21T22:01:43.803Z,11.55
2022-11-21T22:04:13.230Z,10.25
2022-11-21T22:06:41.534Z,11.13
2022-11-21T22:09:09.756Z,12.65
2022-11-21T22:11:39.318Z,11.23
2022-11-21T22:14:11.948Z,10.10
2022-11-21T22:16:40.372Z,10.63
2022-11-21T22:19:08.375Z,11.63
2022-11-21T22:21:38.218Z,10.57
2022-11-21T22:24:38.676Z,10.68
2022-11-21T22:27:00.130Z,10.35
2022-11-21T22:29:29.780Z,11.00
2022-11-21T22:31:57.756Z,11.02
2022-11-21T22:34:26.589Z,11.20
2022-11-21T22:36:54.602Z,9.93
2022-11-21T22:39:22.590Z,10.38
2022-11-21T22:41:50.867Z,9.35
2022-11-21T22:44:19.138Z,9.33
2022-11-21T22:46:48.606Z,8.75
2022-11-21T22:49:16.624Z,9.40
2022-11-21T22:51:45.238Z,8.00
2022-11-21T22:54:13.257Z,9.30
2022-11-21T22:56:41.273Z,8.45
2022-11-21T22:59:09.291Z,10.00
2022-11-21T23:01:37.366Z,8.85
2022-11-21T23:04:06.873Z,9.27
2022-11-21T23:06:34.862Z,7.75
2022-11-21T23:09:02.897Z,8.13
2022-11-21T23:11:36.324Z,9.70
2022-11-21T23:14:08.235Z,8.55
2022-11-21T23:16:36.284Z,6.82
2022-11-21T23:19:04.353Z,8.50
2022-11-21T23:21:33.705Z,7.95
2022-11-21T23:24:01.686Z,8.73
2022-11-21T23:26:29.700Z,8.95
2022-11-21T23:28:57.737Z,7.75
2022-11-21T23:31:25.775Z,7.88
2022-11-21T23:33:53.804Z,8.68
2022-11-21T23:36:21.861Z,9.18
2022-11-21T23:38:51.347Z,9.40
2022-11-21T23:41:19.364Z,8.50
2022-11-21T23:43:47.565Z,9.68
2022-11-21T23:46:15.575Z,8.68
2022-11-21T23:48:43.581Z,10.07
2022-11-21T23:51:11.653Z,9.30
2022-11-21T23:53:39.632Z,11.70
2022-11-21T23:56:08.987Z,9.95
2022-11-21T23:58:37.034Z,9.70
